Time;durP1;ratioP1;P1;durP2;ratioP2;P2;SDS_P1;SDS_P2;PMS_P1;PMS_P2;Temp;Humidity;BMP_temperature;BMP_pressure;BME280_temperature;BME280_humidity;BME280_pressure;Samples;Min_cycle;Max_cycle;Signal;HPM_P1;HPM_P2
2021/12/31 00:01:10;;;;;;;5.47;4.92;;;;;;;9.37;90.96;100563.10;1617427;86;21649;-74
2021/12/31 00:03:36;;;;;;;5.80;4.67;;;;;;;9.38;90.97;100566.95;1623484;86;21077;-74
2021/12/31 00:06:02;;;;;;;5.00;3.90;;;;;;;9.40;90.99;100554.03;1624277;86;21708;-74
2021/12/31 00:08:29;;;;;;;4.13;3.77;;;;;;;9.39;90.95;100551.89;1603182;88;21859;-74
2021/12/31 00:10:59;;;;;;;4.90;4.50;;;;;;;9.43;91.04;100544.52;1626379;86;21419;-74
2021/12/31 00:13:22;;;;;;;4.22;3.83;;;;;;;9.46;91.04;100543.63;1624782;86;21597;-74
2021/12/31 00:15:48;;;;;;;6.07;5.47;;;;;;;9.48;91.04;100534.14;1624015;86;21121;-74
2021/12/31 00:18:14;;;;;;;5.47;4.97;;;;;;;9.50;90.99;100536.27;1625474;86;21513;-74
2021/12/31 00:20:41;;;;;;;4.23;3.83;;;;;;;9.51;90.97;100534.96;1602260;88;20939;-75
2021/12/31 00:23:09;;;;;;;3.92;3.52;;;;;;;9.53;91.00;100533.66;1627459;86;21113;-74
2021/12/31 00:25:40;;;;;;;4.17;3.77;;;;;;;9.55;91.00;100536.63;1626536;86;21577;-75
2021/12/31 00:28:08;;;;;;;5.67;4.25;;;;;;;9.56;91.01;100530.59;1633620;86;21149;-74
2021/12/31 00:30:35;;;;;;;5.78;3.70;;;;;;;9.59;90.98;100542.61;1639332;86;21596;-74
2021/12/31 00:33:03;;;;;;;4.83;4.28;;;;;;;9.59;91.08;100538.30;1629123;86;21094;-74
2021/12/31 00:35:31;;;;;;;4.55;4.15;;;;;;;9.62;91.03;100534.82;1627854;86;21439;-74
2021/12/31 00:37:57;;;;;;;5.45;5.05;;;;;;;9.61;90.95;100531.39;1627316;86;20962;-74
2021/12/31 00:40:23;;;;;;;4.03;3.72;;;;;;;9.61;90.97;100535.70;1627151;86;20994;-74
2021/12/31 00:42:50;;;;;;;4.43;4.07;;;;;;;9.63;91.05;100534.80;1627509;86;21419;-74
2021/12/31 00:45:19;;;;;;;4.25;3.67;;;;;;;9.58;90.99;100515.94;1623623;86;20967;-74
2021/12/31 00:47:45;;;;;;;4.83;4.40;;;;;;;9.67;91.00;100542.07;1603624;88;20935;-74
2021/12/31 00:50:12;;;;;;;4.60;4.20;;;;;;;9.68;91.00;100533.45;1627596;86;21399;-74
2021/12/31 00:52:39;;;;;;;4.80;4.40;;;;;;;9.68;90.95;100541.63;1627616;86;21257;-74
2021/12/31 00:55:07;;;;;;;4.30;3.95;;;;;;;9.68;90.99;100547.65;1626883;86;20994;-74
2021/12/31 00:57:33;;;;;;;4.42;4.03;;;;;;;9.69;90.96;100556.25;1626639;86;21466;-74
2021/12/31 01:00:00;;;;;;;4.65;4.25;;;;;;;9.70;91.01;100566.55;1613974;86;20959;-74
2021/12/31 01:02:28;;;;;;;3.67;3.37;;;;;;;9.70;90.99;100566.55;1618401;86;23428;-74
2021/12/31 01:04:56;;;;;;;4.90;4.25;;;;;;;9.72;91.02;100563.95;1627415;86;21608;-74
2021/12/31 01:07:22;;;;;;;5.10;4.75;;;;;;;9.73;91.03;100553.61;1609640;86;20950;-74
2021/12/31 01:09:48;;;;;;;4.45;4.05;;;;;;;9.75;91.03;100552.30;1626405;86;20942;-74
2021/12/31 01:12:15;;;;;;;5.05;4.55;;;;;;;9.76;91.02;100560.02;1626865;86;21451;-74
2021/12/31 01:17:36;;;;;;;5.08;4.67;;;;;;;9.79;91.05;100572.89;1620354;86;20966;-74
2021/12/31 01:19:49;;;;;;;6.08;5.47;;;;;;;9.81;91.07;100567.27;1606819;86;20967;-74
2021/12/31 01:22:23;;;;;;;6.58;5.55;;;;;;;9.83;91.11;100574.56;1620230;86;20955;-74
2021/12/31 01:24:49;;;;;;;5.12;4.12;;;;;;;9.85;91.14;100576.69;1614565;86;20986;-74
2021/12/31 01:27:16;;;;;;;5.17;4.77;;;;;;;9.89;91.15;100589.94;1627825;86;20958;-74
2021/12/31 01:29:42;;;;;;;5.17;4.78;;;;;;;9.89;91.10;100587.36;1615436;86;20991;-74
2021/12/31 01:32:09;;;;;;;4.50;4.10;;;;;;;9.90;91.12;100593.37;1622445;86;20966;-74
2021/12/31 01:34:37;;;;;;;5.30;4.80;;;;;;;9.91;91.12;100590.77;1627362;86;21184;-74
2021/12/31 01:37:03;;;;;;;4.95;4.58;;;;;;;9.91;91.06;100592.06;1627744;86;20974;-74
2021/12/31 01:39:30;;;;;;;4.80;4.42;;;;;;;9.93;91.13;100595.48;1630012;86;21090;-74
2021/12/31 01:41:58;;;;;;;5.35;4.85;;;;;;;9.95;91.14;100587.71;1635255;86;27571;-74
2021/12/31 01:44:34;;;;;;;5.67;5.17;;;;;;;9.98;91.15;100586.37;1626450;86;21026;-74
2021/12/31 01:46:59;;;;;;;5.58;5.15;;;;;;;10.00;91.20;100602.71;1624538;86;21133;-75
2021/12/31 01:49:27;;;;;;;4.95;4.55;;;;;;;10.03;91.16;100602.67;1615932;86;21080;-74
2021/12/31 01:51:54;;;;;;;4.75;4.30;;;;;;;10.06;91.17;100597.45;1620785;86;21086;-74
2021/12/31 01:54:21;;;;;;;4.47;4.08;;;;;;;10.07;91.15;100594.00;1612706;86;20977;-74
2021/12/31 01:56:48;;;;;;;4.80;4.42;;;;;;;10.08;91.13;100591.83;1624306;86;20978;-74
2021/12/31 01:59:15;;;;;;;5.45;5.03;;;;;;;10.11;91.14;100584.48;1625871;86;21460;-74
2021/12/31 02:01:42;;;;;;;5.47;4.97;;;;;;;10.11;91.12;100578.02;1611737;86;20981;-74
2021/12/31 02:04:09;;;;;;;5.07;4.67;;;;;;;10.13;91.16;100581.00;1623317;86;21136;-74
2021/12/31 02:06:35;;;;;;;5.92;5.45;;;;;;;10.14;91.10;100581.41;1629333;86;21302;-74
2021/12/31 02:09:06;;;;;;;6.07;5.47;;;;;;;10.14;91.09;100578.83;1625376;86;21085;-74
2021/12/31 02:11:33;;;;;;;5.22;4.80;;;;;;;10.16;91.12;100584.83;1624446;86;21125;-74
2021/12/31 02:14:02;;;;;;;6.78;5.42;;;;;;;10.16;91.12;100582.68;1610303;86;23787;-74
2021/12/31 02:16:31;;;;;;;5.83;5.42;;;;;;;10.18;91.12;100578.34;1614976;86;21513;-74
2021/12/31 02:18:58;;;;;;;5.97;5.47;;;;;;;10.18;91.09;100575.32;1620208;86;21010;-74
2021/12/31 02:21:24;;;;;;;;;;;;;;;10.20;91.14;100571.45;1629766;86;20946;-74
2021/12/31 02:23:55;;;;;;;6.28;5.72;;;;;;;10.19;91.17;100568.02;1619655;86;20256;-74
2021/12/31 02:26:20;;;;;;;6.10;5.58;;;;;;;10.20;91.09;100570.16;1628506;86;20962;-74
2021/12/31 02:28:46;;;;;;;6.33;5.73;;;;;;;10.18;91.10;100563.70;1627059;86;20962;-74
2021/12/31 02:31:12;;;;;;;5.87;5.37;;;;;;;10.19;91.10;100568.02;1625347;86;22872;-74
2021/12/31 02:33:39;;;;;;;6.17;5.60;;;;;;;10.18;91.12;100562.41;1625225;86;21011;-74
2021/12/31 02:36:08;;;;;;;5.92;5.10;;;;;;;10.20;91.15;100565.00;1612170;86;21086;-74
2021/12/31 02:38:34;;;;;;;5.78;5.28;;;;;;;10.20;91.13;100562.41;1617814;86;20994;-74
2021/12/31 02:41:00;;;;;;;8.10;6.50;;;;;;;10.20;91.12;100563.70;1627693;86;20955;-74
2021/12/31 02:43:26;;;;;;;6.20;5.70;;;;;;;10.21;91.16;100571.44;1625013;86;20988;-74
2021/12/31 02:45:52;;;;;;;6.50;5.90;;;;;;;10.21;91.14;100562.83;1631724;86;20939;-74
2021/12/31 02:48:27;;;;;;;6.00;5.50;;;;;;;10.22;91.16;100563.24;1636432;86;20938;-74
2021/12/31 02:50:56;;;;;;;6.80;6.30;;;;;;;10.22;91.12;100568.41;1605922;88;20943;-74
2021/12/31 02:53:28;;;;;;;6.72;6.05;;;;;;;10.22;91.17;100569.27;1622081;86;20998;-74
2021/12/31 02:56:02;;;;;;;6.17;5.72;;;;;;;10.24;91.16;100568.80;1632746;86;20934;-74
2021/12/31 02:58:29;;;;;;;6.47;5.42;;;;;;;10.24;91.17;100571.83;1601016;88;21003;-74
2021/12/31 03:00:56;;;;;;;5.85;5.35;;;;;;;10.26;91.16;100577.83;1635521;85;20904;-74
2021/12/31 03:03:24;;;;;;;5.50;5.10;;;;;;;10.28;91.19;100577.36;1663361;85;21421;-74
2021/12/31 03:05:54;;;;;;;5.65;5.25;;;;;;;10.28;91.16;100572.20;1654399;85;20872;-74
2021/12/31 03:08:23;;;;;;;5.62;5.12;;;;;;;10.28;91.15;100576.92;1648648;85;20907;-74
2021/12/31 03:10:52;;;;;;;5.33;4.83;;;;;;;10.29;91.17;100572.61;1629728;85;20911;-74
2021/12/31 03:13:18;;;;;;;4.85;4.45;;;;;;;10.31;91.14;100577.31;1626045;86;21731;-74
2021/12/31 03:15:45;;;;;;;5.35;4.95;;;;;;;10.32;91.21;100576.88;1655684;85;20881;-75
2021/12/31 03:18:12;;;;;;;5.25;4.85;;;;;;;10.33;91.22;100569.10;1658643;85;20879;-74
2021/12/31 03:20:57;;;;;;;4.72;4.33;;;;;;;10.35;91.17;100577.69;1640380;85;26813;-74
2021/12/31 03:23:08;;;;;;;4.80;4.40;;;;;;;10.36;91.14;100566.91;1650804;85;20959;-74
2021/12/31 03:25:34;;;;;;;4.30;3.90;;;;;;;10.36;91.17;100570.34;1657488;85;21033;-74
2021/12/31 03:28:01;;;;;;;4.22;3.92;;;;;;;10.37;91.15;100567.32;1648554;85;20970;-75
2021/12/31 03:30:27;;;;;;;4.08;3.67;;;;;;;10.38;91.19;100562.57;1635881;85;20967;-74
2021/12/31 03:32:54;;;;;;;3.80;3.50;;;;;;;10.39;91.14;100561.69;1646429;85;21045;-74
2021/12/31 03:35:20;;;;;;;3.47;3.20;;;;;;;10.38;91.14;100559.98;1643080;85;21332;-74
2021/12/31 03:37:46;;;;;;;4.00;3.70;;;;;;;10.38;91.14;100558.69;1645405;85;21057;-75
2021/12/31 03:40:13;;;;;;;4.12;3.83;;;;;;;10.40;91.18;100559.52;1650312;85;21098;-75
2021/12/31 03:42:40;;;;;;;4.05;3.75;;;;;;;10.41;91.20;100559.90;1644286;85;21057;-75
2021/12/31 03:45:07;;;;;;;4.45;4.15;;;;;;;10.39;91.18;100553.50;1642972;85;21058;-74
2021/12/31 03:47:33;;;;;;;3.80;3.50;;;;;;;10.40;91.15;100560.34;1642331;85;20982;-74
2021/12/31 03:49:59;;;;;;;3.83;3.52;;;;;;;10.42;91.22;100552.13;1649420;85;20859;-74
2021/12/31 03:52:25;;;;;;;3.43;3.23;;;;;;;10.43;91.21;100554.27;1654215;85;20887;-74
2021/12/31 03:54:51;;;;;;;3.50;3.30;;;;;;;10.43;91.23;100548.66;1653767;85;20910;-74
2021/12/31 03:57:17;;;;;;;3.60;3.37;;;;;;;10.44;91.21;100549.07;1638644;85;20912;-74
2021/12/31 03:59:43;;;;;;;3.90;3.60;;;;;;;10.46;91.24;100542.59;1638893;85;21255;-75
2021/12/31 04:02:09;;;;;;;3.33;3.03;;;;;;;10.46;91.19;100542.59;1659798;84;20851;-74
2021/12/31 04:04:35;;;;;;;2.97;2.77;;;;;;;10.46;91.19;100538.70;1668337;84;20896;-74
2021/12/31 04:07:01;;;;;;;2.80;2.60;;;;;;;10.44;91.50;100537.44;1660641;84;20951;-74
2021/12/31 04:09:26;;;;;;;3.27;3.07;;;;;;;10.42;91.47;100540.92;1630617;86;21002;-74
2021/12/31 04:11:52;;;;;;;3.17;2.97;;;;;;;10.41;91.25;100543.10;1632766;86;20995;-74
2021/12/31 04:14:18;;;;;;;2.83;2.63;;;;;;;10.38;91.21;100538.87;1632306;86;20890;-75
2021/12/31 04:16:44;;;;;;;2.50;2.40;;;;;;;10.38;91.26;100542.74;1654238;85;20879;-74
2021/12/31 04:19:10;;;;;;;2.70;2.50;;;;;;;10.40;91.30;100547.41;1669602;85;20856;-74
2021/12/31 04:21:37;;;;;;;2.52;2.33;;;;;;;10.38;91.17;100544.03;1644869;85;20962;-74
2021/12/31 04:24:13;;;;;;;2.57;2.37;;;;;;;10.34;91.15;100538.50;1653287;85;21391;-74
2021/12/31 04:26:35;;;;;;;3.35;3.15;;;;;;;10.32;91.13;100541.55;1669163;85;20977;-74
2021/12/31 04:29:01;;;;;;;2.50;2.33;;;;;;;10.30;91.12;100546.33;1648675;85;20923;-74
2021/12/31 04:31:27;;;;;;;2.57;2.37;;;;;;;10.27;91.10;100542.91;1640714;85;20922;-74
2021/12/31 04:33:53;;;;;;;2.13;2.00;;;;;;;10.22;91.09;100542.13;1654113;85;20911;-74
2021/12/31 04:36:19;;;;;;;1.60;1.50;;;;;;;10.21;91.11;100530.53;1653770;85;21626;-74
2021/12/31 04:38:45;;;;;;;2.30;2.20;;;;;;;10.18;91.08;100536.56;1651756;85;20939;-74
2021/12/31 04:41:11;;;;;;;1.80;1.70;;;;;;;10.15;91.10;100528.01;1640822;85;20970;-74
2021/12/31 04:43:37;;;;;;;1.70;1.60;;;;;;;10.13;91.14;100529.32;1648321;85;20879;-74
2021/12/31 04:46:03;;;;;;;1.90;1.80;;;;;;;10.11;91.12;100528.93;1659675;85;20964;-74
2021/12/31 04:48:29;;;;;;;2.00;1.90;;;;;;;10.09;91.13;100528.09;1655655;85;20880;-74
2021/12/31 04:50:55;;;;;;;2.00;1.90;;;;;;;10.10;91.16;100531.09;1650781;85;20875;-74
2021/12/31 04:53:21;;;;;;;1.70;1.60;;;;;;;10.06;91.15;100529.00;1654655;85;20860;-74
2021/12/31 04:55:49;;;;;;;2.30;2.12;;;;;;;10.05;91.19;100531.17;1668788;85;20906;-73
2021/12/31 04:58:15;;;;;;;2.02;1.92;;;;;;;10.04;91.17;100529.90;1659811;85;21402;-74
2021/12/31 05:00:41;;;;;;;2.23;2.13;;;;;;;10.03;91.17;100526.46;1640321;85;20876;-74
2021/12/31 05:03:11;;;;;;;2.53;2.33;;;;;;;10.03;91.24;100521.73;1670384;85;20860;-74
2021/12/31 05:05:38;;;;;;;2.30;2.20;;;;;;;10.04;91.24;100532.05;1654180;85;21011;-74
2021/12/31 05:08:04;;;;;;;2.65;2.45;;;;;;;10.04;91.23;100524.30;1627333;86;21411;-74
2021/12/31 05:10:32;;;;;;;2.47;2.37;;;;;;;10.04;91.18;100529.90;1646070;85;21535;-74
2021/12/31 05:13:00;;;;;;;2.95;2.75;;;;;;;10.05;91.26;100527.73;1634700;85;20907;-74
2021/12/31 05:15:28;;;;;;;2.83;2.62;;;;;;;10.05;91.22;100526.00;1654967;85;20903;-74
2021/12/31 05:17:55;;;;;;;2.83;2.62;;;;;;;10.06;91.24;100517.81;1654447;85;20928;-74
2021/12/31 05:20:22;;;;;;;3.42;3.22;;;;;;;10.07;91.28;100514.35;1650988;85;20871;-74
2021/12/31 05:22:48;;;;;;;2.90;2.70;;;;;;;10.09;91.26;100515.19;1641256;85;26928;-74
2021/12/31 05:25:16;;;;;;;3.05;2.85;;;;;;;10.10;91.29;100518.18;1663163;85;21034;-74
2021/12/31 05:27:43;;;;;;;3.35;3.15;;;;;;;10.09;91.24;100517.33;1677522;85;21079;-74
2021/12/31 05:30:10;;;;;;;7.20;6.83;;;;;;;10.11;91.25;100524.62;1662971;85;20975;-74
2021/12/31 05:32:36;;;;;;;3.17;2.98;;;;;;;10.12;91.23;100525.03;1661890;85;20967;-74
2021/12/31 05:35:03;;;;;;;2.60;2.50;;;;;;;10.12;91.28;100522.89;1654068;85;20951;-74
2021/12/31 05:37:29;;;;;;;2.75;2.55;;;;;;;10.13;91.27;100521.56;1648236;85;21514;-74
2021/12/31 05:39:55;;;;;;;3.00;2.80;;;;;;;10.13;91.23;100521.56;1654767;85;20919;-74
2021/12/31 05:42:21;;;;;;;3.20;2.90;;;;;;;10.13;91.27;100516.41;1654286;85;20891;-74
2021/12/31 05:44:48;;;;;;;2.97;2.77;;;;;;;10.13;91.24;100520.28;1657031;85;21407;-74
2021/12/31 05:47:14;;;;;;;2.22;2.12;;;;;;;10.14;91.26;100523.72;1655240;85;20959;-74
2021/12/31 05:49:41;;;;;;;2.37;2.27;;;;;;;10.16;91.29;100524.55;1624628;86;26922;-74
2021/12/31 05:52:07;;;;;;;2.30;2.17;;;;;;;10.15;91.26;100518.52;1654375;85;20907;-74
2021/12/31 05:54:33;;;;;;;3.37;1.95;;;;;;;10.16;91.27;100518.09;1663465;85;20942;-74
2021/12/31 05:57:00;;;;;;;2.42;2.22;;;;;;;10.16;91.27;100520.23;1652621;85;20899;-74
2021/12/31 05:59:26;;;;;;;2.27;2.07;;;;;;;10.18;91.33;100512.45;1654801;85;20959;-74
2021/12/31 06:01:52;;;;;;;2.10;1.92;;;;;;;10.21;91.35;100520.19;1659452;85;20930;-74
2021/12/31 06:04:18;;;;;;;7.90;7.40;;;;;;;10.25;91.43;100519.27;1656803;85;20906;-74
2021/12/31 06:06:45;;;;;;;1.52;1.42;;;;;;;10.28;91.38;100508.88;1652112;85;21606;-74
2021/12/31 06:09:14;;;;;;;1.05;1.05;;;;;;;10.33;91.46;100518.70;1655589;85;20934;-74
2021/12/31 06:11:41;;;;;;;1.75;1.65;;;;;;;10.35;91.42;100518.23;1653067;85;20939;-74
2021/12/31 06:14:08;;;;;;;;;;;;;;;10.38;91.44;100514.31;1654524;85;20949;-74
2021/12/31 06:16:40;;;;;;;1.40;1.30;;;;;;;10.41;91.44;100512.94;1659492;85;20725;-74
2021/12/31 06:19:05;;;;;;;1.20;1.20;;;;;;;10.43;91.43;100518.08;1665140;85;20971;-74
2021/12/31 06:21:35;;;;;;;;;;;;;;;10.45;91.44;100518.47;1662010;85;20905;-74
2021/12/31 06:24:02;;;;;;;1.42;1.20;;;;;;;10.49;91.52;100521.41;1652568;85;20098;-74
2021/12/31 06:26:28;;;;;;;1.25;1.17;;;;;;;10.54;91.56;100525.21;1658389;85;20911;-74
2021/12/31 06:28:54;;;;;;;1.30;1.20;;;;;;;10.59;91.60;100530.72;1652873;85;20958;-74
2021/12/31 06:31:20;;;;;;;1.03;1.00;;;;;;;10.63;91.56;100535.84;1663729;85;20891;-74
2021/12/31 06:33:46;;;;;;;1.57;1.20;;;;;;;10.67;91.60;100534.47;1671842;83;21510;-74
2021/12/31 06:36:12;;;;;;;1.30;1.20;;;;;;;10.70;91.52;100537.44;1662921;85;20894;-74
2021/12/31 06:38:38;;;;;;;1.50;1.10;;;;;;;10.73;91.53;100539.97;1655526;85;20914;-74
2021/12/31 06:41:05;;;;;;;0.90;0.90;;;;;;;10.75;91.51;100539.06;1660450;85;21006;-74
2021/12/31 06:43:31;;;;;;;1.40;0.90;;;;;;;10.78;91.44;100538.16;1651507;85;20902;-74
2021/12/31 06:45:56;;;;;;;1.07;0.97;;;;;;;10.80;91.48;100538.98;1660596;85;20911;-74
2021/12/31 06:48:22;;;;;;;1.80;0.73;;;;;;;10.84;91.50;100536.31;1661095;85;20887;-74
2021/12/31 06:50:51;;;;;;;3.00;2.90;;;;;;;10.86;91.49;100531.97;1656714;85;20931;-74
2021/12/31 06:53:17;;;;;;;13.97;13.37;;;;;;;10.88;91.41;100535.37;1653847;85;20902;-74
2021/12/31 06:55:44;;;;;;;1.70;1.60;;;;;;;10.89;91.42;100535.79;1654966;85;20930;-74
2021/12/31 06:58:10;;;;;;;1.90;1.80;;;;;;;10.93;91.46;100540.44;1665788;85;21566;-75
2021/12/31 07:00:35;;;;;;;1.55;1.40;;;;;;;10.95;91.46;100549.88;1651068;85;21002;-74
2021/12/31 07:03:10;;;;;;;9.60;9.07;;;;;;;10.97;91.42;100554.17;1652396;84;21882;-74
2021/12/31 07:05:36;;;;;;;2.58;2.37;;;;;;;10.98;91.43;100563.20;1657961;85;21518;-74
2021/12/31 07:08:04;;;;;;;1999.90;999.90;;;;;;;11.00;91.44;100559.28;1643316;85;20938;-74
2021/12/31 07:10:30;;;;;;;1.52;1.00;;;;;;;11.02;91.43;100562.70;1648414;85;20911;-74
2021/12/31 07:13:04;;;;;;;1.87;1.73;;;;;;;11.02;91.36;100567.88;1667321;85;20982;-74
2021/12/31 07:15:30;;;;;;;1.70;1.55;;;;;;;11.02;91.36;100560.96;1648887;85;20899;-74
2021/12/31 07:17:56;;;;;;;3.00;1.57;;;;;;;11.04;91.37;100569.99;1653417;85;20935;-74
2021/12/31 07:20:22;;;;;;;1.70;1.60;;;;;;;11.03;91.38;100558.79;1655581;85;21025;-74
2021/12/31 07:22:49;;;;;;;2.35;1.87;;;;;;;11.03;91.33;100566.55;1664770;85;21061;-74
2021/12/31 07:25:15;;;;;;;2.15;1.52;;;;;;;11.02;91.32;100570.02;1654856;85;21121;-74
2021/12/31 07:27:41;;;;;;;2.90;1.83;;;;;;;11.02;91.33;100573.90;1655405;85;20859;-74
2021/12/31 07:30:09;;;;;;;4.53;2.00;;;;;;;11.01;91.34;100569.61;1651135;85;21002;-74
2021/12/31 07:32:38;;;;;;;3.02;1.92;;;;;;;11.01;91.31;100572.63;1656189;85;20911;-74
2021/12/31 07:35:05;;;;;;;3.08;2.67;;;;;;;10.99;91.30;100562.31;1663069;85;21275;-74
2021/12/31 07:37:31;;;;;;;7.22;3.80;;;;;;;11.01;91.34;100560.98;1657741;85;20930;-74
2021/12/31 07:40:04;;;;;;;7.87;4.10;;;;;;;11.00;91.38;100569.19;1636595;86;20934;-74
2021/12/31 07:42:29;;;;;;;4.72;3.52;;;;;;;11.00;91.35;100572.22;1652558;85;20906;-74
2021/12/31 07:44:55;;;;;;;6.22;3.80;;;;;;;11.00;91.35;100569.63;1665016;85;20967;-75
2021/12/31 07:47:21;;;;;;;7.37;4.23;;;;;;;11.00;91.37;100565.31;1656747;84;21002;-75
2021/12/31 07:49:48;;;;;;;8.67;5.10;;;;;;;10.99;91.38;100572.66;1663347;85;21010;-75
2021/12/31 07:52:14;;;;;;;5.47;4.35;;;;;;;11.00;91.39;100576.95;1655172;84;21012;-74
2021/12/31 07:54:40;;;;;;;6.57;4.97;;;;;;;11.03;91.40;100569.58;1660385;85;20963;-74
2021/12/31 07:57:06;;;;;;;7.20;4.80;;;;;;;11.03;91.40;100569.58;1660294;85;20946;-75
2021/12/31 07:59:32;;;;;;;5.27;4.33;;;;;;;11.05;91.39;100571.70;1657908;85;20960;-75
2021/12/31 08:01:58;;;;;;;7.28;3.90;;;;;;;11.04;91.33;100570.84;1657756;85;21089;-74
2021/12/31 08:04:25;;;;;;;3.97;3.43;;;;;;;11.04;91.37;100572.58;1650651;85;20967;-74
2021/12/31 08:06:51;;;;;;;8.60;3.85;;;;;;;11.06;91.38;100571.67;1653836;85;21031;-75
2021/12/31 08:09:17;;;;;;;5.78;3.90;;;;;;;11.06;91.40;100572.96;1652990;85;20926;-74
2021/12/31 08:11:43;;;;;;;6.57;3.70;;;;;;;11.06;91.35;100567.78;1654513;85;21034;-75
2021/12/31 08:14:10;;;;;;;5.47;4.07;;;;;;;11.08;91.37;100567.76;1655130;85;21140;-74
2021/12/31 08:16:36;;;;;;;6.65;4.62;;;;;;;11.09;91.40;100566.88;1633522;85;21384;-74
2021/12/31 08:19:02;;;;;;;7.10;5.67;;;;;;;11.10;91.39;100569.88;1654150;85;21601;-74
2021/12/31 08:21:29;;;;;;;6.67;5.37;;;;;;;11.11;91.39;100571.58;1655571;85;20993;-74
2021/12/31 08:23:55;;;;;;;6.50;5.20;;;;;;;11.11;91.38;100569.84;1656225;85;21038;-74
2021/12/31 08:26:21;;;;;;;6.03;5.03;;;;;;;11.12;91.39;100561.20;1652938;85;20911;-76
2021/12/31 08:28:47;;;;;;;4.50;4.10;;;;;;;11.15;91.39;100565.03;1655796;85;20971;-76
2021/12/31 08:31:13;;;;;;;5.97;3.50;;;;;;;11.18;91.41;100574.47;1651380;85;21002;-76
2021/12/31 08:33:40;;;;;;;5.20;4.58;;;;;;;11.18;91.41;100574.47;1657938;85;21549;-76
2021/12/31 08:36:07;;;;;;;;;;;;;;;11.19;91.39;100571.00;1655490;85;22164;-76
2021/12/31 08:38:33;;;;;;;6.58;3.75;;;;;;;11.18;91.37;100575.32;1654963;85;20130;-76
2021/12/31 08:41:01;;;;;;;7.27;4.40;;;;;;;11.19;91.40;100583.94;1659318;85;20898;-76
2021/12/31 08:43:27;;;;;;;6.55;4.40;;;;;;;11.19;91.39;100588.67;1650990;85;21655;-76
2021/12/31 08:45:54;;;;;;;4.87;4.42;;;;;;;11.22;91.40;100592.94;1643545;85;20995;-76
2021/12/31 08:48:21;;;;;;;5.20;4.70;;;;;;;11.22;91.37;100595.53;1656142;85;21085;-76
2021/12/31 08:50:47;;;;;;;5.60;4.67;;;;;;;11.20;91.30;100587.79;1651474;85;21517;-76
2021/12/31 08:53:13;;;;;;;6.55;5.25;;;;;;;11.21;91.36;100597.70;1655736;85;20982;-76
2021/12/31 08:55:39;;;;;;;7.00;4.70;;;;;;;11.22;91.40;100597.67;1651209;85;21492;-76
2021/12/31 08:58:06;;;;;;;11.03;6.53;;;;;;;11.23;91.39;100601.12;1655274;85;21067;-76
2021/12/31 09:00:33;;;;;;;8.30;5.78;;;;;;;11.24;91.36;100596.35;1659788;84;21115;-76
2021/12/31 09:02:59;;;;;;;9.55;6.95;;;;;;;11.23;91.36;100602.41;1647169;85;27327;-76
2021/12/31 09:05:27;;;;;;;8.10;5.72;;;;;;;11.23;91.37;100595.50;1656185;85;22198;-76
2021/12/31 09:07:53;;;;;;;6.58;5.62;;;;;;;11.23;91.39;100594.20;1656629;85;21074;-76
2021/12/31 09:10:20;;;;;;;6.43;4.73;;;;;;;11.24;91.37;100601.53;1665553;85;21631;-76
2021/12/31 09:12:46;;;;;;;6.53;5.37;;;;;;;11.24;91.37;100598.94;1655902;85;21778;-76
2021/12/31 09:15:13;;;;;;;;;;;;;;;11.24;91.37;100600.23;1660217;85;21778;-76
2021/12/31 09:17:39;;;;;;;5.17;4.67;;;;;;;11.25;91.42;100605.38;1658061;85;21199;-76
2021/12/31 09:20:06;;;;;;;5.75;4.53;;;;;;;11.26;91.39;100605.80;1656585;85;21455;-76
2021/12/31 09:22:33;;;;;;;6.45;4.87;;;;;;;11.27;91.42;100606.20;1636974;85;21474;-79
2021/12/31 09:24:59;;;;;;;4.70;4.20;;;;;;;11.27;91.40;100603.62;1652911;85;21010;-74
2021/12/31 09:27:26;;;;;;;5.17;4.70;;;;;;;11.28;91.39;100605.33;1655832;85;21041;-74
2021/12/31 09:29:53;;;;;;;5.33;4.22;;;;;;;11.27;91.38;100600.18;1658124;85;21561;-74
2021/12/31 09:32:20;;;;;;;4.53;3.77;;;;;;;11.26;91.38;100584.23;1657283;85;21000;-74
2021/12/31 09:34:48;;;;;;;4.45;4.05;;;;;;;11.27;91.42;100584.64;1657941;85;21392;-74
2021/12/31 09:37:15;;;;;;;5.15;4.08;;;;;;;11.29;91.41;100585.47;1657086;85;21387;-74
2021/12/31 09:39:41;;;;;;;3.65;3.35;;;;;;;11.30;91.43;100581.14;1662300;85;20883;-74
2021/12/31 09:42:09;;;;;;;4.03;2.80;;;;;;;11.32;91.44;100581.97;1657824;85;20891;-74
2021/12/31 09:44:37;;;;;;;3.77;3.22;;;;;;;11.33;91.46;100565.55;1653174;85;20918;-74
2021/12/31 09:47:10;;;;;;;3.35;3.05;;;;;;;11.36;91.46;100575.84;1656731;85;21492;-74
2021/12/31 09:49:34;;;;;;;5.03;3.27;;;;;;;11.37;91.42;100571.94;1647204;85;20943;-74
2021/12/31 09:52:00;;;;;;;;;;;;;;;11.37;91.37;100573.67;1651431;85;21823;-77
2021/12/31 09:54:26;;;;;;;4.10;2.90;;;;;;;11.37;91.41;100582.73;1658164;85;20450;-78
2021/12/31 09:56:52;;;;;;;3.10;2.80;;;;;;;11.36;91.42;100575.41;1654507;85;20855;-78
2021/12/31 09:59:18;;;;;;;3.20;2.30;;;;;;;11.37;91.41;100577.55;1655470;85;20843;-78
2021/12/31 10:01:52;;;;;;;4.00;2.30;;;;;;;11.37;91.40;100574.97;1656745;85;21486;-78
2021/12/31 10:04:20;;;;;;;6.22;2.87;;;;;;;11.37;91.39;100579.70;1647086;85;20951;-78
2021/12/31 10:07:10;;;;;;;5.65;2.60;;;;;;;11.37;91.39;100574.53;1650093;85;21098;-78
2021/12/31 10:09:43;;;;;;;3.92;2.87;;;;;;;11.38;91.38;100568.91;1657732;85;20947;-78
2021/12/31 10:12:08;;;;;;;2.60;2.42;;;;;;;11.37;91.37;100571.94;1645747;85;21070;-78
2021/12/31 10:14:39;;;;;;;2.98;2.70;;;;;;;11.38;91.43;100573.64;1655951;85;20987;-77
2021/12/31 10:17:06;;;;;;;4.12;2.77;;;;;;;11.40;91.43;100578.80;1651574;85;21133;-78
2021/12/31 10:19:33;;;;;;;3.35;2.55;;;;;;;11.40;91.42;100566.70;1652804;85;21062;-78
2021/12/31 10:21:59;;;;;;;3.02;2.80;;;;;;;11.41;91.39;100564.97;1650989;85;21041;-77
2021/12/31 10:24:39;;;;;;;3.15;2.60;;;;;;;11.41;91.40;100561.94;1657011;85;21662;-78
2021/12/31 10:27:23;;;;;;;3.27;2.58;;;;;;;11.41;91.41;100572.29;1663777;85;21331;-78
2021/12/31 10:30:03;;;;;;;2.87;2.67;;;;;;;11.41;91.35;100567.55;1661072;85;21095;-78
2021/12/31 10:32:33;;;;;;;2.47;2.27;;;;;;;11.41;91.37;100568.84;1654378;85;21042;-78
2021/12/31 10:35:22;;;;;;;4.65;2.67;;;;;;;11.42;91.38;100562.78;1651959;85;21577;-78
2021/12/31 10:38:01;;;;;;;3.75;3.33;;;;;;;11.43;91.38;100568.38;1649829;85;21022;-78
2021/12/31 10:40:33;;;;;;;5.17;2.90;;;;;;;11.45;91.39;100571.75;1648662;85;21398;-78
2021/12/31 10:43:17;;;;;;;5.30;2.42;;;;;;;11.45;91.41;100566.57;1661050;85;21090;-78
2021/12/31 10:46:11;;;;;;;3.50;3.20;;;;;;;11.46;91.40;100560.07;1658360;85;21897;-78
2021/12/31 10:48:46;;;;;;;7.15;4.80;;;;;;;11.48;91.38;100553.56;1647437;85;21498;-78
2021/12/31 10:51:15;;;;;;;9.25;7.25;;;;;;;11.49;91.40;100557.86;1646385;85;21057;-78
2021/12/31 10:53:50;;;;;;;4.15;3.27;;;;;;;11.49;91.34;100551.39;1656468;85;20891;-78
2021/12/31 10:56:13;;;;;;;3.62;2.80;;;;;;;11.47;91.34;100555.74;1658408;85;21558;-78
2021/12/31 10:58:43;;;;;;;4.37;3.98;;;;;;;11.48;91.32;100550.53;1656625;85;21265;-77
2021/12/31 11:01:14;;;;;;;8.20;7.35;;;;;;;11.46;91.35;100552.30;1657228;84;21069;-78
2021/12/31 11:03:41;;;;;;;19.98;18.07;;;;;;;11.47;91.37;100545.39;1652645;85;21729;-78
2021/12/31 11:06:13;;;;;;;8.08;5.42;;;;;;;11.48;91.36;100540.62;1659344;86;21010;-78
2021/12/31 11:08:38;;;;;;;5.42;4.90;;;;;;;11.48;91.36;100545.80;1631956;86;20931;-78
2021/12/31 11:11:04;;;;;;;4.55;3.65;;;;;;;11.48;91.34;100541.91;1627328;86;20887;-78
2021/12/31 11:13:31;;;;;;;7.30;5.47;;;;;;;11.49;91.36;100538.44;1622614;86;20946;-78
2021/12/31 11:16:00;;;;;;;3.22;3.02;;;;;;;11.49;91.32;100526.79;1647825;85;20884;-77
2021/12/31 11:18:27;;;;;;;6.62;6.03;;;;;;;11.51;91.33;100536.67;1662287;85;20907;-78
2021/12/31 11:21:01;;;;;;;6.53;5.97;;;;;;;11.52;91.38;100534.49;1654969;85;20867;-78
2021/12/31 11:23:30;;;;;;;5.15;4.00;;;;;;;11.53;91.41;100531.02;1657816;85;20948;-78
2021/12/31 11:26:00;;;;;;;9.35;5.33;;;;;;;11.56;91.35;100527.07;1626890;85;25079;-78
2021/12/31 11:28:32;;;;;;;12.85;8.60;;;;;;;11.55;91.30;100533.98;1633882;86;20948;-78
2021/12/31 11:31:23;;;;;;;13.25;11.45;;;;;;;11.56;91.32;100525.33;1630211;86;21007;-78